Stanford Ranch, California
Current Conditions -  °F | °C
As of 7:35 AM on Friday 19 Dec 2014 (Local Time) from KLHM Reporting Station
Overcast Overcast  
Wind Chill: 55°   Ceiling: 3500
Heat Index: 55°   Visibility: 10mi
Dew Point: 41°   Wind: 18mph
Humidity: 58%   Direction: 150°SSE
Pressure: 30.09"   Gusts: 23mph
Location:  38.8019°N, 121.249°W
Report Text: KLHM 191535Z AUTO 15016G20KT 10SM OVC035 13/05 A3009 RMK AO1
Loading
Personal Weather Stations






























Interactive Weather Map New forecast layout! Learn more

10-Day Weather Forecast

Advertisements
Track Severe Weather on mobile